createdAt,value
2023-05-17T00:01:28.655Z,14.29
2023-05-17T00:03:56.768Z,14.32
2023-05-17T00:06:24.687Z,14.32
2023-05-17T00:08:54.063Z,14.34
2023-05-17T00:11:22.071Z,14.33
2023-05-17T00:13:50.031Z,14.34
2023-05-17T00:16:17.971Z,14.33
2023-05-17T00:18:46.162Z,14.32
2023-05-17T00:21:14.189Z,14.34
2023-05-17T00:23:42.130Z,14.34
2023-05-17T00:26:11.465Z,14.36
2023-05-17T00:28:40.330Z,14.35
2023-05-17T00:31:08.325Z,14.35
2023-05-17T00:33:36.423Z,14.34
2023-05-17T00:36:04.845Z,14.39
2023-05-17T00:38:32.938Z,14.35
2023-05-17T00:41:00.986Z,14.39
2023-05-17T00:43:30.451Z,14.37
2023-05-17T00:45:58.463Z,14.39
2023-05-17T00:48:26.938Z,14.39
2023-05-17T00:50:56.347Z,14.39
2023-05-17T00:53:24.699Z,14.37
2023-05-17T00:55:54.898Z,14.42
2023-05-17T00:58:24.047Z,14.42
2023-05-17T01:00:55.117Z,14.42
2023-05-17T01:03:23.633Z,14.42
2023-05-17T01:05:52.393Z,14.44
2023-05-17T01:08:20.438Z,14.44
2023-05-17T01:10:58.466Z,14.43
2023-05-17T01:13:33.206Z,14.45
2023-05-17T01:16:11.608Z,14.49
2023-05-17T01:18:45.901Z,14.52
2023-05-17T01:21:35.518Z,14.55
2023-05-17T01:24:24.501Z,14.57
2023-05-17T01:26:55.198Z,14.53
2023-05-17T01:29:27.722Z,14.48
2023-05-17T01:31:58.404Z,14.49
2023-05-17T01:34:27.177Z,14.49
2023-05-17T01:36:55.412Z,14.41
2023-05-17T01:39:23.322Z,14.36
2023-05-17T01:42:01.319Z,14.40
2023-05-17T01:44:37.965Z,14.43
2023-05-17T01:47:13.002Z,14.43
2023-05-17T01:49:42.759Z,14.41
2023-05-17T01:52:17.239Z,14.39
2023-05-17T01:54:50.084Z,14.37
2023-05-17T01:57:21.598Z,14.39
2023-05-17T01:59:52.859Z,14.41
2023-05-17T02:02:22.506Z,14.32
2023-05-17T02:04:51.574Z,14.29
2023-05-17T02:07:19.601Z,14.19
2023-05-17T02:09:47.606Z,14.11
2023-05-17T02:12:16.018Z,14.12
2023-05-17T02:14:45.408Z,14.11
2023-05-17T02:17:13.600Z,14.10
2023-05-17T02:19:41.699Z,14.09
2023-05-17T02:22:09.669Z,14.07
2023-05-17T02:24:37.578Z,14.07
2023-05-17T02:27:07.100Z,14.08
2023-05-17T02:29:35.198Z,14.08
2023-05-17T02:32:06.138Z,14.08
2023-05-17T02:34:34.327Z,14.09
2023-05-17T02:37:02.315Z,14.06
2023-05-17T02:39:30.263Z,14.07
2023-05-17T02:41:58.135Z,14.05
2023-05-17T02:44:26.190Z,14.04
2023-05-17T02:46:54.597Z,14.04
2023-05-17T02:49:23.987Z,14.04
2023-05-17T02:51:51.892Z,14.07
2023-05-17T02:54:19.886Z,14.09
2023-05-17T02:56:47.944Z,14.09
2023-05-17T02:59:16.068Z,14.12
2023-05-17T03:01:44.010Z,14.13
2023-05-17T03:04:12.671Z,14.12
2023-05-17T03:06:43.010Z,14.14
2023-05-17T03:09:11.175Z,14.16
2023-05-17T03:11:39.423Z,14.17
2023-05-17T03:14:13.524Z,14.17
2023-05-17T03:16:41.584Z,14.18
2023-05-17T03:19:10.144Z,14.23
2023-05-17T03:21:40.135Z,14.28
2023-05-17T03:24:09.684Z,14.32
2023-05-17T03:26:38.826Z,14.35
2023-05-17T03:29:08.704Z,14.31
2023-05-17T03:31:37.691Z,14.32
2023-05-17T03:34:05.923Z,14.34
2023-05-17T03:36:35.544Z,14.36
2023-05-17T03:39:03.514Z,14.34
2023-05-17T03:41:33.490Z,14.36
2023-05-17T03:44:02.421Z,14.36
2023-05-17T03:46:31.353Z,14.37
2023-05-17T03:48:59.771Z,14.37
2023-05-17T03:51:27.833Z,14.42
2023-05-17T03:53:59.456Z,14.38
2023-05-17T03:56:28.868Z,14.38
2023-05-17T03:58:58.158Z,14.38
2023-05-17T04:01:26.655Z,14.41
2023-05-17T04:03:54.682Z,14.41
2023-05-17T04:06:23.694Z,14.46
2023-05-17T04:08:51.724Z,14.45
2023-05-17T04:11:23.809Z,14.44
2023-05-17T04:13:52.040Z,14.47
2023-05-17T04:16:22.157Z,14.44
2023-05-17T04:18:52.753Z,14.41
2023-05-17T04:21:20.924Z,14.41
2023-05-17T04:23:49.297Z,14.38
2023-05-17T04:26:17.704Z,14.37
2023-05-17T04:28:45.781Z,14.34
2023-05-17T04:31:16.750Z,14.36
2023-05-17T04:33:46.927Z,14.35
2023-05-17T04:36:14.900Z,14.30
2023-05-17T04:38:43.998Z,14.30
2023-05-17T04:41:16.119Z,14.31
2023-05-17T04:43:44.595Z,14.30
2023-05-17T04:46:20.350Z,14.28
2023-05-17T04:48:50.110Z,14.25
2023-05-17T04:51:18.328Z,14.32
2023-05-17T04:53:46.444Z,14.37
2023-05-17T04:56:18.213Z,14.41
2023-05-17T04:58:46.187Z,14.40
2023-05-17T05:01:14.772Z,14.41
2023-05-17T05:03:42.936Z,14.38
2023-05-17T05:06:16.169Z,14.47
2023-05-17T05:08:44.353Z,14.47
2023-05-17T05:11:13.487Z,14.46
2023-05-17T05:13:42.380Z,14.46
2023-05-17T05:16:10.426Z,14.54
2023-05-17T05:18:38.892Z,14.56
2023-05-17T05:21:09.695Z,14.60
2023-05-17T05:23:40.573Z,14.60
2023-05-17T05:26:08.674Z,14.60
2023-05-17T05:28:37.310Z,14.57
2023-05-17T05:31:05.441Z,14.57
2023-05-17T05:33:41.704Z,14.61
2023-05-17T05:36:10.821Z,14.63
2023-05-17T05:38:40.153Z,14.65
2023-05-17T05:41:08.303Z,14.67
2023-05-17T05:43:38.277Z,14.69
2023-05-17T05:46:07.379Z,14.71
2023-05-17T05:48:39.396Z,14.74
2023-05-17T05:51:08.017Z,14.73
2023-05-17T05:53:38.046Z,14.72
2023-05-17T05:56:08.034Z,14.73
2023-05-17T05:58:36.002Z,14.77
2023-05-17T06:01:06.440Z,14.83
2023-05-17T06:03:34.675Z,14.82
2023-05-17T06:06:02.771Z,14.82
2023-05-17T06:08:30.768Z,14.80
2023-05-17T06:10:58.677Z,14.79
2023-05-17T06:13:27.981Z,14.77
2023-05-17T06:15:55.912Z,14.76
2023-05-17T06:18:26.328Z,14.75
2023-05-17T06:20:54.388Z,14.75
2023-05-17T06:23:22.322Z,14.79
2023-05-17T06:25:50.197Z,14.78
2023-05-17T06:28:18.643Z,14.73
2023-05-17T06:30:47.984Z,14.69
2023-05-17T06:33:16.001Z,14.67
2023-05-17T06:35:55.638Z,14.67
2023-05-17T06:38:24.608Z,14.71
2023-05-17T06:40:53.889Z,14.72
2023-05-17T06:43:22.600Z,14.77
2023-05-17T06:45:51.991Z,14.72
2023-05-17T06:48:20.239Z,14.69
2023-05-17T06:50:48.270Z,14.72
2023-05-17T06:53:16.346Z,14.72
2023-05-17T06:55:44.429Z,14.74
2023-05-17T06:58:12.490Z,14.73
2023-05-17T07:00:44.670Z,14.63
2023-05-17T07:03:14.040Z,14.67
2023-05-17T07:05:42.071Z,14.67
2023-05-17T07:08:10.049Z,14.69
2023-05-17T07:10:37.946Z,14.69
2023-05-17T07:13:05.893Z,14.72
2023-05-17T07:15:33.840Z,14.78
2023-05-17T07:18:01.918Z,14.81
2023-05-17T07:20:31.539Z,14.84
2023-05-17T07:22:59.475Z,14.88
2023-05-17T07:25:27.661Z,14.94
2023-05-17T07:27:56.041Z,14.94
2023-05-17T07:30:24.067Z,14.81
2023-05-17T07:32:52.109Z,14.98
2023-05-17T07:35:21.824Z,14.92
2023-05-17T07:37:51.464Z,14.94
2023-05-17T07:40:19.716Z,14.91
2023-05-17T07:42:47.659Z,14.89
2023-05-17T07:45:15.601Z,14.87
2023-05-17T07:47:43.658Z,14.85
2023-05-17T07:50:12.409Z,14.84
2023-05-17T07:52:40.479Z,14.80
2023-05-17T07:55:11.135Z,14.71
2023-05-17T07:57:39.033Z,14.70
2023-05-17T08:00:11.439Z,14.73
2023-05-17T08:02:42.587Z,14.71
2023-05-17T08:05:11.396Z,14.70
2023-05-17T08:07:39.392Z,14.72
2023-05-17T08:10:09.621Z,14.74
2023-05-17T08:12:37.611Z,14.84
2023-05-17T08:15:06.403Z,14.79
2023-05-17T08:17:34.507Z,14.73
2023-05-17T08:20:02.628Z,14.61
2023-05-17T08:22:30.541Z,14.60
2023-05-17T08:24:58.446Z,14.60
2023-05-17T08:27:27.707Z,14.65
2023-05-17T08:29:59.799Z,14.65
2023-05-17T08:32:28.134Z,14.62
2023-05-17T08:34:56.858Z,14.51
2023-05-17T08:37:24.998Z,14.51
2023-05-17T08:39:53.029Z,14.44
2023-05-17T08:42:25.200Z,14.32
2023-05-17T08:44:54.806Z,14.28
2023-05-17T08:47:29.960Z,14.24
2023-05-17T08:50:00.476Z,14.12
2023-05-17T08:52:31.190Z,14.06
2023-05-17T08:55:00.979Z,13.97
2023-05-17T08:57:31.393Z,13.94
2023-05-17T09:00:01.438Z,13.92
2023-05-17T09:02:31.735Z,13.91
2023-05-17T09:05:00.945Z,13.89
2023-05-17T09:07:28.831Z,13.83
2023-05-17T09:09:58.386Z,13.59
2023-05-17T09:12:26.387Z,13.63
2023-05-17T09:14:54.347Z,13.54
2023-05-17T09:17:23.851Z,13.37
2023-05-17T09:19:52.079Z,13.24
2023-05-17T09:22:20.677Z,13.16
2023-05-17T09:24:48.681Z,12.96
2023-05-17T09:27:19.538Z,12.78
2023-05-17T09:29:48.364Z,12.66
2023-05-17T09:32:18.014Z,12.54
2023-05-17T09:34:48.308Z,12.45
2023-05-17T09:37:18.250Z,12.33
2023-05-17T09:39:47.712Z,12.19
2023-05-17T09:42:16.964Z,12.07
2023-05-17T09:44:51.001Z,11.96
2023-05-17T09:47:26.373Z,11.89
2023-05-17T09:49:57.130Z,11.85
2023-05-17T09:52:25.826Z,11.79
2023-05-17T09:54:54.883Z,11.80
2023-05-17T09:57:23.351Z,11.80
2023-05-17T09:59:53.032Z,11.85
2023-05-17T10:02:25.886Z,11.91
2023-05-17T10:04:58.568Z,11.98
2023-05-17T10:07:28.214Z,12.01
2023-05-17T10:09:57.477Z,12.06
2023-05-17T10:12:30.476Z,12.07
2023-05-17T10:15:00.061Z,12.10
2023-05-17T10:17:29.901Z,12.12
2023-05-17T10:20:00.538Z,12.14
2023-05-17T10:22:29.910Z,12.20
2023-05-17T10:24:58.988Z,12.19
2023-05-17T10:27:27.908Z,12.11
2023-05-17T10:29:56.170Z,12.29
2023-05-17T10:32:27.125Z,12.32
2023-05-17T10:35:09.205Z,12.24
2023-05-17T10:37:42.361Z,12.40
2023-05-17T10:40:13.801Z,12.41
2023-05-17T10:42:50.895Z,12.37
2023-05-17T10:45:22.570Z,12.45
2023-05-17T10:47:52.583Z,12.52
2023-05-17T10:50:24.014Z,12.58
2023-05-17T10:52:55.804Z,12.62
2023-05-17T10:55:26.132Z,12.57
2023-05-17T10:58:15.901Z,12.55
2023-05-17T11:00:47.085Z,12.56
2023-05-17T11:03:17.914Z,12.55
2023-05-17T11:06:12.715Z,12.52
2023-05-17T11:09:08.808Z,12.52
2023-05-17T11:11:36.762Z,12.64
2023-05-17T11:14:05.982Z,12.71
2023-05-17T11:16:37.413Z,12.70
2023-05-17T11:19:09.695Z,12.69
2023-05-17T11:21:46.472Z,12.67
2023-05-17T11:24:24.698Z,12.74
2023-05-17T11:26:55.931Z,12.74
2023-05-17T11:29:30.159Z,12.68
2023-05-17T11:31:58.380Z,12.65
2023-05-17T11:34:26.984Z,12.65
2023-05-17T11:36:56.934Z,12.65
2023-05-17T11:39:26.940Z,12.64
2023-05-17T11:41:56.786Z,12.66
2023-05-17T11:44:29.465Z,12.71
2023-05-17T11:47:04.987Z,12.66
2023-05-17T11:49:36.311Z,12.77
2023-05-17T11:52:06.120Z,12.82
2023-05-17T11:54:36.441Z,12.86
2023-05-17T11:57:05.217Z,12.87
2023-05-17T11:59:39.842Z,12.82
2023-05-17T12:02:08.084Z,12.78
2023-05-17T12:04:38.403Z,12.79
2023-05-17T12:07:10.456Z,12.73
2023-05-17T12:09:40.331Z,12.75
2023-05-17T12:12:09.734Z,12.80
2023-05-17T12:14:37.903Z,12.78
2023-05-17T12:17:09.780Z,12.79
2023-05-17T12:19:37.874Z,12.81
2023-05-17T12:22:12.409Z,12.82
2023-05-17T12:24:43.519Z,12.95
2023-05-17T12:27:12.045Z,12.92
2023-05-17T12:29:40.765Z,12.98
2023-05-17T12:32:11.199Z,12.98
2023-05-17T12:34:40.621Z,12.98
2023-05-17T12:37:10.872Z,13.08
2023-05-17T12:39:39.479Z,13.12
2023-05-17T12:42:10.313Z,13.17
2023-05-17T12:44:38.598Z,13.29
2023-05-17T12:47:07.514Z,13.38
2023-05-17T12:49:40.085Z,13.35
2023-05-17T12:52:08.736Z,13.16
2023-05-17T12:54:36.796Z,13.14
2023-05-17T12:57:15.976Z,13.14
2023-05-17T12:59:48.045Z,13.15
2023-05-17T13:02:16.785Z,13.19
2023-05-17T13:04:44.780Z,13.21
2023-05-17T13:07:13.117Z,13.36
2023-05-17T13:09:48.094Z,13.41
2023-05-17T13:12:22.351Z,13.34
2023-05-17T13:14:53.175Z,13.32
2023-05-17T13:17:26.426Z,13.30
2023-05-17T13:19:54.519Z,13.28
2023-05-17T13:22:23.793Z,13.25
2023-05-17T13:24:52.044Z,13.23
2023-05-17T13:27:21.328Z,13.07
2023-05-17T13:29:49.258Z,13.10
2023-05-17T13:32:17.198Z,12.99
2023-05-17T13:34:45.143Z,12.99
2023-05-17T13:37:13.245Z,12.92
2023-05-17T13:39:41.701Z,12.96
2023-05-17T13:42:10.565Z,12.98
2023-05-17T13:44:39.958Z,12.96
2023-05-17T13:47:09.027Z,12.94
2023-05-17T13:49:37.334Z,12.88
2023-05-17T13:52:08.463Z,12.94
2023-05-17T13:54:36.720Z,12.95
2023-05-17T13:57:05.308Z,12.95
2023-05-17T13:59:33.290Z,12.96
2023-05-17T14:02:04.122Z,12.98
2023-05-17T14:04:32.013Z,12.93
2023-05-17T14:07:00.037Z,12.91
2023-05-17T14:09:30.471Z,12.80
2023-05-17T14:12:00.373Z,12.77
2023-05-17T14:14:29.232Z,12.77
2023-05-17T14:16:57.757Z,12.76
2023-05-17T14:19:27.217Z,12.83
2023-05-17T14:21:55.272Z,12.85
2023-05-17T14:24:23.333Z,12.82
2023-05-17T14:26:51.299Z,12.75
2023-05-17T14:29:19.179Z,12.70
2023-05-17T14:31:47.234Z,12.59
2023-05-17T14:34:15.262Z,12.60
2023-05-17T14:36:44.680Z,12.58
2023-05-17T14:39:12.662Z,12.56
2023-05-17T14:41:41.634Z,12.54
2023-05-17T14:44:10.784Z,12.49
2023-05-17T14:46:38.650Z,12.43
2023-05-17T14:49:06.939Z,12.41
2023-05-17T14:51:34.912Z,12.46
2023-05-17T14:54:04.475Z,12.47
2023-05-17T14:56:32.406Z,12.47
2023-05-17T14:59:00.582Z,12.46
2023-05-17T15:01:29.130Z,12.43
2023-05-17T15:03:57.362Z,12.46
2023-05-17T15:06:26.168Z,12.46
2023-05-17T15:08:54.957Z,12.43
2023-05-17T15:11:24.322Z,12.39
2023-05-17T15:13:52.867Z,12.43
2023-05-17T15:16:21.060Z,12.44
2023-05-17T15:18:49.223Z,12.43
2023-05-17T15:21:19.017Z,12.39
2023-05-17T15:23:47.923Z,12.38
2023-05-17T15:26:15.793Z,12.38
2023-05-17T15:28:45.324Z,12.36
2023-05-17T15:31:13.256Z,12.37
2023-05-17T15:33:43.205Z,12.40
2023-05-17T15:36:13.215Z,12.38
2023-05-17T15:38:41.383Z,12.36
2023-05-17T15:41:14.187Z,12.37
2023-05-17T15:43:42.629Z,12.29
2023-05-17T15:46:12.164Z,12.28
2023-05-17T15:48:40.221Z,12.25
2023-05-17T15:51:08.715Z,12.24
2023-05-17T15:53:36.589Z,12.21
2023-05-17T15:56:04.887Z,12.18
2023-05-17T15:58:34.053Z,12.10
2023-05-17T16:01:04.995Z,12.05
2023-05-17T16:03:34.482Z,12.01
2023-05-17T16:06:04.210Z,12.00
2023-05-17T16:08:32.633Z,12.03
2023-05-17T16:11:02.321Z,12.00
2023-05-17T16:13:31.048Z,11.96
2023-05-17T16:15:59.669Z,12.00
2023-05-17T16:18:27.714Z,11.95
2023-05-17T16:21:01.168Z,12.00
2023-05-17T16:23:29.119Z,12.05
2023-05-17T16:25:57.265Z,12.08
2023-05-17T16:28:28.340Z,12.05
2023-05-17T16:30:56.321Z,11.99
2023-05-17T16:33:24.311Z,11.97
2023-05-17T16:35:52.336Z,11.93
2023-05-17T16:38:21.690Z,11.88
2023-05-17T16:40:49.718Z,11.84
2023-05-17T16:43:17.569Z,11.83
2023-05-17T16:45:46.465Z,11.81
2023-05-17T16:48:15.057Z,11.81
2023-05-17T16:50:43.323Z,11.78
2023-05-17T16:53:12.204Z,11.77
2023-05-17T16:55:42.176Z,11.76
2023-05-17T16:58:10.132Z,11.75
2023-05-17T17:00:40.087Z,11.75
2023-05-17T17:03:09.822Z,11.74
2023-05-17T17:05:38.269Z,11.74
2023-05-17T17:08:06.232Z,11.75
2023-05-17T17:10:35.807Z,11.77
2023-05-17T17:13:05.105Z,11.81
2023-05-17T17:15:33.101Z,11.82
2023-05-17T17:18:00.989Z,11.84
2023-05-17T17:20:29.189Z,11.85
2023-05-17T17:22:57.448Z,11.83
2023-05-17T17:25:25.795Z,11.81
2023-05-17T17:27:53.739Z,11.82
2023-05-17T17:30:23.036Z,11.84
2023-05-17T17:32:51.000Z,11.81
2023-05-17T17:35:19.015Z,11.78
2023-05-17T17:37:47.038Z,11.76
2023-05-17T17:40:15.043Z,11.78
2023-05-17T17:42:42.940Z,11.71
2023-05-17T17:45:11.520Z,11.77
2023-05-17T17:47:42.089Z,11.73
2023-05-17T17:50:10.564Z,11.66
2023-05-17T17:52:38.424Z,11.66
2023-05-17T17:55:10.093Z,11.63
2023-05-17T17:57:38.001Z,11.60
2023-05-17T18:00:17.301Z,11.56
2023-05-17T18:02:46.623Z,11.53
2023-05-17T18:05:14.607Z,11.50
2023-05-17T18:07:42.505Z,11.47
2023-05-17T18:10:11.201Z,11.41
2023-05-17T18:12:39.116Z,11.38
2023-05-17T18:15:07.690Z,11.36
2023-05-17T18:17:35.840Z,11.37
2023-05-17T18:20:06.782Z,11.36
2023-05-17T18:22:35.392Z,11.36
2023-05-17T18:25:03.252Z,11.37
2023-05-17T18:27:31.117Z,11.35
2023-05-17T18:29:58.961Z,11.32
2023-05-17T18:32:27.060Z,11.29
2023-05-17T18:34:55.076Z,11.29
2023-05-17T18:37:24.463Z,11.33
2023-05-17T18:39:53.916Z,11.34
2023-05-17T18:42:24.754Z,11.31
2023-05-17T18:44:52.687Z,11.28
2023-05-17T18:47:21.358Z,11.28
2023-05-17T18:49:49.365Z,11.25
2023-05-17T18:52:17.660Z,11.25
2023-05-17T18:54:47.612Z,11.21
2023-05-17T18:57:15.813Z,11.22
2023-05-17T18:59:43.737Z,11.23
2023-05-17T19:02:11.577Z,11.20
2023-05-17T19:04:40.040Z,11.20
2023-05-17T19:07:08.166Z,11.19
2023-05-17T19:09:36.097Z,11.22
2023-05-17T19:12:06.249Z,11.22
2023-05-17T19:14:34.171Z,11.21
2023-05-17T19:17:02.160Z,11.21
2023-05-17T19:19:31.138Z,11.22
2023-05-17T19:22:00.714Z,11.19
2023-05-17T19:24:28.692Z,11.19
2023-05-17T19:26:56.612Z,11.20
2023-05-17T19:29:27.171Z,11.23
2023-05-17T19:31:55.179Z,11.24
2023-05-17T19:34:23.076Z,11.23
2023-05-17T19:36:51.022Z,11.24
2023-05-17T19:39:19.569Z,11.26
2023-05-17T19:41:47.562Z,11.27
2023-05-17T19:44:15.539Z,11.30
2023-05-17T19:46:44.836Z,11.35
2023-05-17T19:49:13.795Z,11.41
2023-05-17T19:51:41.724Z,11.44
2023-05-17T19:54:09.611Z,11.43
2023-05-17T19:56:38.131Z,11.42
2023-05-17T19:59:06.213Z,11.44
2023-05-17T20:01:34.342Z,11.42
2023-05-17T20:04:03.707Z,11.44
2023-05-17T20:06:31.717Z,11.44
2023-05-17T20:08:59.575Z,11.44
2023-05-17T20:11:27.513Z,11.42
2023-05-17T20:13:55.392Z,11.42
2023-05-17T20:16:23.256Z,11.45
2023-05-17T20:18:51.228Z,11.47
2023-05-17T20:21:21.693Z,11.48
2023-05-17T20:23:51.414Z,11.49
2023-05-17T20:26:25.647Z,11.50
2023-05-17T20:28:54.232Z,11.54
2023-05-17T20:31:22.235Z,11.56
2023-05-17T20:33:50.114Z,11.58
2023-05-17T20:36:18.420Z,11.57
2023-05-17T20:38:49.125Z,11.59
2023-05-17T20:41:17.337Z,11.59
2023-05-17T20:43:46.224Z,11.62
2023-05-17T20:46:14.528Z,11.51
2023-05-17T20:48:45.859Z,11.68
2023-05-17T20:51:14.252Z,11.67
2023-05-17T20:53:42.142Z,11.66
2023-05-17T20:56:14.151Z,11.65
2023-05-17T20:58:42.080Z,11.64
2023-05-17T21:01:10.088Z,11.64
2023-05-17T21:03:39.794Z,11.61
2023-05-17T21:06:08.298Z,11.57
2023-05-17T21:08:36.735Z,11.62
2023-05-17T21:11:04.714Z,11.65
2023-05-17T21:13:34.081Z,11.64
2023-05-17T21:16:02.124Z,11.67
2023-05-17T21:18:30.079Z,11.68
2023-05-17T21:20:57.973Z,11.69
2023-05-17T21:23:25.879Z,11.61
2023-05-17T21:25:53.832Z,11.66
2023-05-17T21:28:21.707Z,11.68
2023-05-17T21:30:50.982Z,11.70
2023-05-17T21:33:18.912Z,11.66
2023-05-17T21:35:46.886Z,11.67
2023-05-17T21:38:14.854Z,11.69
2023-05-17T21:40:42.989Z,11.71
2023-05-17T21:43:11.324Z,11.72
2023-05-17T21:45:39.810Z,11.69
2023-05-17T21:48:09.426Z,11.75
2023-05-17T21:50:37.435Z,11.75
2023-05-17T21:53:05.444Z,11.77
2023-05-17T21:55:45.789Z,11.77
2023-05-17T21:58:21.224Z,11.77
2023-05-17T22:00:49.156Z,11.77
2023-05-17T22:03:18.534Z,11.76
2023-05-17T22:05:46.506Z,11.78
2023-05-17T22:08:14.475Z,11.79
2023-05-17T22:10:42.418Z,11.78
2023-05-17T22:13:12.333Z,11.81
2023-05-17T22:15:41.399Z,11.80
2023-05-17T22:18:12.053Z,11.80
2023-05-17T22:20:41.583Z,11.81
2023-05-17T22:23:09.501Z,11.82
2023-05-17T22:25:37.489Z,11.81
2023-05-17T22:28:05.428Z,11.83
2023-05-17T22:30:33.655Z,11.83
2023-05-17T22:33:03.105Z,11.83
2023-05-17T22:35:31.115Z,11.86
2023-05-17T22:38:00.468Z,11.87
2023-05-17T22:40:28.779Z,11.87
2023-05-17T22:42:58.136Z,11.89
2023-05-17T22:45:32.810Z,11.94
2023-05-17T22:48:02.950Z,11.94
2023-05-17T22:50:34.539Z,11.97
2023-05-17T22:53:05.985Z,12.00
2023-05-17T22:55:33.996Z,12.03
2023-05-17T22:58:01.943Z,12.06
2023-05-17T23:00:29.849Z,12.08
2023-05-17T23:02:57.840Z,12.12
2023-05-17T23:05:26.380Z,12.10
2023-05-17T23:07:54.282Z,12.11
2023-05-17T23:10:23.998Z,12.10
2023-05-17T23:12:52.706Z,12.09
2023-05-17T23:15:20.811Z,12.10
2023-05-17T23:17:48.844Z,12.07
2023-05-17T23:20:16.860Z,12.05
2023-05-17T23:22:44.807Z,12.07
2023-05-17T23:25:12.746Z,12.10
2023-05-17T23:27:44.469Z,12.06
2023-05-17T23:30:13.050Z,12.06
2023-05-17T23:32:42.712Z,12.05
2023-05-17T23:35:10.829Z,12.04
2023-05-17T23:37:38.820Z,12.02
2023-05-17T23:40:09.322Z,12.02
2023-05-17T23:42:37.290Z,12.01
2023-05-17T23:45:09.256Z,11.99
2023-05-17T23:47:40.696Z,11.96
2023-05-17T23:50:10.186Z,11.97
2023-05-17T23:52:38.967Z,11.99
2023-05-17T23:55:08.045Z,11.99
2023-05-17T23:57:36.609Z,11.95
